»·PEaware :: N286AC KBUR-KLAS

N286AC :: KBUR-KLAS

FLIGHT INFORMATION

Flight Status: Arrived
Operator: Privately registered:
United States
More flights under this callsign
Pilot: Justin C. (19245)
Aircraft: BEECH AIRCRAFT BARON
(BE58)
More flights by this aircraft type
Origin: KBUR Bob Hope-Burbank
United States
Destination: KLAS McCarran Intl
United States
More flights between these airports :: More routes between these airports
Route: VNY3 DAG CRESO4
File this flight plan on PilotEdge
Remarks:
Altitude:
(Current/Filed)
11,000ft
Speed:
(Current/Filed)
190kts
Departed: 30-Jul-18 07:09 PM
Arrived: 30-Jul-18 08:35 PM
Distance/Time
Traveled:
193nm/1:26
Distance/Time
To Go:
Arrived

Flight Plot

Page will automatically refresh every two minutes.

Flight plan parsing failed; only flown route is shown


Map Options




Map Legend


Flown Route
Filed Route
Departure Airport
Arrival Airport
Navaid (VOR, NDB)
Fix

Horizontal Profiles

Position Reports

Time Latitude Longitude Heading Altitude Ground
Speed
30-Jul-18 18:57 34.200494 -118.365995 182 778ft 0kts
30-Jul-18 18:58 34.200494 -118.365995 182 778ft 0kts
30-Jul-18 18:59 34.200494 -118.365995 182 778ft 0kts
30-Jul-18 19:00 34.200494 -118.365995 182 778ft 0kts
30-Jul-18 19:01 34.200494 -118.365995 182 778ft 0kts
30-Jul-18 19:02 34.200493 -118.365995 182 778ft 0kts
30-Jul-18 19:03 34.200493 -118.365995 182 778ft 0kts
30-Jul-18 19:04 34.200493 -118.365995 182 778ft 0kts
30-Jul-18 19:05 34.200493 -118.365995 182 778ft 0kts
30-Jul-18 19:06 34.199127 -118.368091 270 778ft 14kts
30-Jul-18 19:07 34.198776 -118.369093 182 778ft 0kts
30-Jul-18 19:08 34.198776 -118.369093 182 778ft 0kts
30-Jul-18 19:09 34.198777 -118.369093 182 778ft 0kts
30-Jul-18 19:10 34.197908 -118.354148 92 841ft 93kts
30-Jul-18 19:11 34.189654 -118.334395 194 1611ft 88kts
30-Jul-18 19:12 34.171398 -118.357011 224 2765ft 108kts
30-Jul-18 19:13 34.151418 -118.384160 214 4156ft 114kts
30-Jul-18 19:14 34.127299 -118.415097 225 4074ft 171kts
30-Jul-18 19:15 34.134086 -118.451135 349 5382ft 137kts
30-Jul-18 19:16 34.174743 -118.458821 353 6825ft 132kts
30-Jul-18 19:17 34.208768 -118.465790 352 8027ft 129kts
30-Jul-18 19:18 34.242776 -118.469146 7 9131ft 125kts
30-Jul-18 19:19 34.271264 -118.467295 7 9938ft 126kts
30-Jul-18 19:20 34.305988 -118.465167 7 10854ft 127kts
30-Jul-18 19:21 34.345863 -118.462689 6 11003ft 164kts
30-Jul-18 19:22 34.389218 -118.448433 53 11049ft 170kts
30-Jul-18 19:23 34.418034 -118.404478 56 11042ft 172kts
30-Jul-18 19:24 34.446896 -118.358838 56 11042ft 171kts
30-Jul-18 19:25 34.475618 -118.313100 56 11061ft 173kts
30-Jul-18 19:26 34.504691 -118.266735 56 11061ft 176kts
30-Jul-18 19:27 34.534575 -118.218942 55 10996ft 178kts
30-Jul-18 19:28 34.564071 -118.171809 55 10996ft 175kts
30-Jul-18 19:29 34.593296 -118.125012 55 10996ft 175kts
30-Jul-18 19:30 34.622712 -118.077828 55 10996ft 175kts
30-Jul-18 19:31 34.635732 -118.023746 83 10996ft 172kts
30-Jul-18 19:32 34.642121 -117.966357 84 10997ft 174kts
30-Jul-18 19:33 34.648544 -117.907592 84 10996ft 176kts
30-Jul-18 19:34 34.654870 -117.849435 84 10996ft 175kts
30-Jul-18 19:35 34.661173 -117.791193 84 11005ft 175kts
30-Jul-18 19:36 34.671823 -117.733923 75 11005ft 175kts
30-Jul-18 19:37 34.686273 -117.677521 75 11005ft 175kts
30-Jul-18 19:38 34.700703 -117.621187 75 11005ft 175kts
30-Jul-18 19:39 34.715094 -117.564915 75 11004ft 175kts
30-Jul-18 19:40 34.729466 -117.508610 75 11004ft 175kts
30-Jul-18 19:41 34.743994 -117.451572 75 10995ft 177kts
30-Jul-18 19:42 34.758534 -117.394275 74 10995ft 178kts
30-Jul-18 19:43 34.773096 -117.336919 75 10997ft 179kts
30-Jul-18 19:44 34.787768 -117.278947 75 10997ft 179kts
30-Jul-18 19:45 34.802404 -117.220967 75 10997ft 179kts
30-Jul-18 19:46 34.816964 -117.163170 75 10996ft 178kts
30-Jul-18 19:47 34.831560 -117.105061 75 10897ft 181kts
30-Jul-18 19:48 34.846194 -117.046732 75 10905ft 179kts
30-Jul-18 19:49 34.860435 -116.989788 75 10997ft 178kts
30-Jul-18 19:50 34.874897 -116.931838 75 10996ft 179kts
30-Jul-18 19:51 34.889363 -116.873766 75 10996ft 179kts
30-Jul-18 19:52 34.903852 -116.815457 75 10996ft 179kts
30-Jul-18 19:53 34.918279 -116.757269 75 10996ft 179kts
30-Jul-18 19:54 34.932699 -116.699067 76 10996ft 180kts
30-Jul-18 19:55 34.947225 -116.640163 76 10997ft 183kts
30-Jul-18 19:56 34.961930 -116.580683 72 10995ft 185kts
30-Jul-18 19:57 34.986108 -116.525074 64 10997ft 187kts
30-Jul-18 19:58 35.010920 -116.469271 64 10997ft 187kts
30-Jul-18 19:59 35.035594 -116.413673 64 11042ft 186kts
30-Jul-18 20:00 35.060127 -116.358294 64 11042ft 187kts
30-Jul-18 20:01 35.082694 -116.307296 65 11044ft 187kts
30-Jul-18 20:02 35.105845 -116.254893 65 11041ft 187kts
30-Jul-18 20:03 35.129559 -116.201113 65 11041ft 188kts
30-Jul-18 20:04 35.153406 -116.146971 65 11041ft 188kts
30-Jul-18 20:05 35.178091 -116.090827 65 11041ft 188kts
30-Jul-18 20:06 35.202808 -116.034514 65 11041ft 188kts
30-Jul-18 20:07 35.227447 -115.978286 65 11041ft 188kts
30-Jul-18 20:08 35.252067 -115.922002 64 11041ft 188kts
30-Jul-18 20:09 35.276735 -115.865486 63 11041ft 189kts
30-Jul-18 20:10 35.301516 -115.808688 63 11041ft 189kts
30-Jul-18 20:11 35.332837 -115.757441 48 11041ft 191kts
30-Jul-18 20:12 35.368626 -115.709930 48 11050ft 190kts
30-Jul-18 20:13 35.404183 -115.662490 48 11050ft 188kts
30-Jul-18 20:14 35.439425 -115.615396 48 11050ft 187kts
30-Jul-18 20:15 35.474540 -115.568412 48 11050ft 186kts
30-Jul-18 20:16 35.509358 -115.521757 48 11050ft 186kts
30-Jul-18 20:17 35.544395 -115.474781 48 11049ft 186kts
30-Jul-18 20:18 35.579244 -115.427992 48 11041ft 186kts
30-Jul-18 20:19 35.614315 -115.380839 48 11041ft 186kts
30-Jul-18 20:20 35.647860 -115.335657 49 11042ft 186kts
30-Jul-18 20:21 35.681981 -115.289652 49 11042ft 186kts
30-Jul-18 20:22 35.716888 -115.242515 49 11042ft 186kts
30-Jul-18 20:23 35.760452 -115.212089 10 10589ft 188kts
30-Jul-18 20:24 35.811634 -115.201100 10 9791ft 186kts
30-Jul-18 20:25 35.860999 -115.191060 10 8915ft 183kts
30-Jul-18 20:26 35.912107 -115.180106 10 7895ft 185kts
30-Jul-18 20:27 35.960854 -115.167935 10 6778ft 173kts
30-Jul-18 20:28 36.003461 -115.157423 10 5669ft 145kts
30-Jul-18 20:29 36.042554 -115.144899 19 4574ft 151kts
30-Jul-18 20:30 36.078874 -115.130809 22 3405ft 128kts
30-Jul-18 20:31 36.107343 -115.116606 27 2842ft 109kts
30-Jul-18 20:32 36.131903 -115.098478 36 2646ft 116kts
30-Jul-18 20:33 36.139194 -115.122334 238 2687ft 125kts
30-Jul-18 20:34 36.116462 -115.147056 204 2490ft 105kts
30-Jul-18 20:35 36.093326 -115.160068 241 2182ft 51kts
30-Jul-18 20:36 36.091451 -115.161352 206 2182ft 0kts
30-Jul-18 20:37 36.089627 -115.162420 203 2182ft 21kts
30-Jul-18 20:38 36.089381 -115.163445 295 2182ft 0kts
30-Jul-18 20:39 36.089381 -115.163445 295 2182ft 0kts

Navigation Log

Ident Type
Flight plan parsing failed, navigation log unavailable